sensor_id;sensor_type;location;lat;lon;timestamp;P1;durP1;ratioP1;P2;durP2;ratioP2
19739;SDS011;10027;51.066;13.768;2023-03-01T00:01:28;21.63;;;9.87;;
19739;SDS011;10027;51.066;13.768;2023-03-01T00:03:55;25.97;;;11.70;;
19739;SDS011;10027;51.066;13.768;2023-03-01T00:06:23;24.17;;;10.47;;
19739;SDS011;10027;51.066;13.768;2023-03-01T00:08:50;37.97;;;11.50;;
19739;SDS011;10027;51.066;13.768;2023-03-01T00:11:21;23.00;;;10.17;;
19739;SDS011;10027;51.066;13.768;2023-03-01T00:13:50;30.70;;;10.47;;
19739;SDS011;10027;51.066;13.768;2023-03-01T00:16:22;21.63;;;10.17;;
19739;SDS011;10027;51.066;13.768;2023-03-01T00:18:49;22.00;;;10.63;;
19739;SDS011;10027;51.066;13.768;2023-03-01T00:21:17;23.50;;;10.27;;
19739;SDS011;10027;51.066;13.768;2023-03-01T00:23:44;23.67;;;10.50;;
19739;SDS011;10027;51.066;13.768;2023-03-01T00:26:12;19.17;;;9.37;;
19739;SDS011;10027;51.066;13.768;2023-03-01T00:28:40;21.80;;;10.77;;
19739;SDS011;10027;51.066;13.768;2023-03-01T00:31:08;19.53;;;9.50;;
19739;SDS011;10027;51.066;13.768;2023-03-01T00:33:36;24.03;;;9.83;;
19739;SDS011;10027;51.066;13.768;2023-03-01T00:36:03;20.63;;;9.37;;
19739;SDS011;10027;51.066;13.768;2023-03-01T00:38:30;23.27;;;9.30;;
19739;SDS011;10027;51.066;13.768;2023-03-01T00:41:04;20.33;;;10.37;;
19739;SDS011;10027;51.066;13.768;2023-03-01T00:43:31;22.13;;;9.70;;
19739;SDS011;10027;51.066;13.768;2023-03-01T00:46:15;24.40;;;9.67;;
19739;SDS011;10027;51.066;13.768;2023-03-01T00:48:43;21.57;;;8.73;;
19739;SDS011;10027;51.066;13.768;2023-03-01T00:51:18;15.97;;;7.40;;
19739;SDS011;10027;51.066;13.768;2023-03-01T00:53:45;15.03;;;7.33;;
19739;SDS011;10027;51.066;13.768;2023-03-01T00:56:13;15.63;;;7.07;;
19739;SDS011;10027;51.066;13.768;2023-03-01T00:58:41;16.33;;;7.37;;
19739;SDS011;10027;51.066;13.768;2023-03-01T01:01:12;13.53;;;6.93;;
19739;SDS011;10027;51.066;13.768;2023-03-01T01:03:53;13.83;;;6.73;;
19739;SDS011;10027;51.066;13.768;2023-03-01T01:06:21;14.07;;;7.07;;
19739;SDS011;10027;51.066;13.768;2023-03-01T01:08:49;12.30;;;6.80;;
19739;SDS011;10027;51.066;13.768;2023-03-01T01:11:16;11.60;;;6.73;;
19739;SDS011;10027;51.066;13.768;2023-03-01T01:13:44;14.73;;;7.70;;
19739;SDS011;10027;51.066;13.768;2023-03-01T01:16:12;17.43;;;7.23;;
19739;SDS011;10027;51.066;13.768;2023-03-01T01:18:40;13.90;;;7.37;;
19739;SDS011;10027;51.066;13.768;2023-03-01T01:21:08;18.43;;;7.60;;
19739;SDS011;10027;51.066;13.768;2023-03-01T01:23:36;15.23;;;7.73;;
19739;SDS011;10027;51.066;13.768;2023-03-01T01:26:05;13.30;;;7.37;;
19739;SDS011;10027;51.066;13.768;2023-03-01T01:28:32;15.37;;;7.13;;
19739;SDS011;10027;51.066;13.768;2023-03-01T01:30:59;13.13;;;6.70;;
19739;SDS011;10027;51.066;13.768;2023-03-01T01:33:26;16.47;;;7.33;;
19739;SDS011;10027;51.066;13.768;2023-03-01T01:35:53;16.50;;;7.40;;
19739;SDS011;10027;51.066;13.768;2023-03-01T01:38:21;20.50;;;7.90;;
19739;SDS011;10027;51.066;13.768;2023-03-01T01:40:48;15.57;;;7.37;;
19739;SDS011;10027;51.066;13.768;2023-03-01T01:43:17;17.83;;;8.03;;
19739;SDS011;10027;51.066;13.768;2023-03-01T01:45:44;15.30;;;7.60;;
19739;SDS011;10027;51.066;13.768;2023-03-01T01:48:12;16.03;;;8.07;;
19739;SDS011;10027;51.066;13.768;2023-03-01T01:50:42;18.63;;;8.07;;
19739;SDS011;10027;51.066;13.768;2023-03-01T01:53:12;18.57;;;8.23;;
19739;SDS011;10027;51.066;13.768;2023-03-01T01:55:45;16.53;;;7.63;;
19739;SDS011;10027;51.066;13.768;2023-03-01T01:58:15;15.97;;;8.13;;
19739;SDS011;10027;51.066;13.768;2023-03-01T02:00:44;16.27;;;7.60;;
19739;SDS011;10027;51.066;13.768;2023-03-01T02:03:11;21.23;;;7.87;;
19739;SDS011;10027;51.066;13.768;2023-03-01T02:08:21;15.07;;;7.03;;
19739;SDS011;10027;51.066;13.768;2023-03-01T02:10:49;13.83;;;7.37;;
19739;SDS011;10027;51.066;13.768;2023-03-01T02:13:18;14.00;;;7.17;;
19739;SDS011;10027;51.066;13.768;2023-03-01T02:15:45;14.97;;;7.37;;
19739;SDS011;10027;51.066;13.768;2023-03-01T02:18:14;15.03;;;7.40;;
19739;SDS011;10027;51.066;13.768;2023-03-01T02:20:49;18.83;;;7.33;;
19739;SDS011;10027;51.066;13.768;2023-03-01T02:23:18;16.90;;;7.87;;
19739;SDS011;10027;51.066;13.768;2023-03-01T02:26:01;19.33;;;8.57;;
19739;SDS011;10027;51.066;13.768;2023-03-01T02:28:32;14.90;;;7.47;;
19739;SDS011;10027;51.066;13.768;2023-03-01T02:31:01;12.93;;;7.40;;
19739;SDS011;10027;51.066;13.768;2023-03-01T02:33:47;19.10;;;8.10;;
19739;SDS011;10027;51.066;13.768;2023-03-01T02:36:19;18.33;;;7.43;;
19739;SDS011;10027;51.066;13.768;2023-03-01T02:38:48;14.47;;;7.83;;
19739;SDS011;10027;51.066;13.768;2023-03-01T02:41:17;11.10;;;7.00;;
19739;SDS011;10027;51.066;13.768;2023-03-01T02:43:44;12.60;;;6.70;;
19739;SDS011;10027;51.066;13.768;2023-03-01T02:46:16;14.10;;;6.77;;
19739;SDS011;10027;51.066;13.768;2023-03-01T02:48:45;19.80;;;7.50;;
19739;SDS011;10027;51.066;13.768;2023-03-01T02:56:16;13.87;;;7.50;;
19739;SDS011;10027;51.066;13.768;2023-03-01T02:58:43;13.70;;;7.10;;
19739;SDS011;10027;51.066;13.768;2023-03-01T03:01:14;12.77;;;7.07;;
19739;SDS011;10027;51.066;13.768;2023-03-01T03:03:42;13.97;;;7.20;;
19739;SDS011;10027;51.066;13.768;2023-03-01T03:06:09;17.70;;;7.97;;
19739;SDS011;10027;51.066;13.768;2023-03-01T03:08:36;17.90;;;8.07;;
19739;SDS011;10027;51.066;13.768;2023-03-01T03:11:03;18.90;;;8.03;;
19739;SDS011;10027;51.066;13.768;2023-03-01T03:13:31;17.43;;;7.90;;
19739;SDS011;10027;51.066;13.768;2023-03-01T03:15:58;18.53;;;7.70;;
19739;SDS011;10027;51.066;13.768;2023-03-01T03:18:25;15.77;;;7.70;;
19739;SDS011;10027;51.066;13.768;2023-03-01T03:20:52;19.77;;;7.67;;
19739;SDS011;10027;51.066;13.768;2023-03-01T03:23:20;15.37;;;7.57;;
19739;SDS011;10027;51.066;13.768;2023-03-01T03:25:49;17.37;;;7.73;;
19739;SDS011;10027;51.066;13.768;2023-03-01T03:28:16;19.00;;;7.30;;
19739;SDS011;10027;51.066;13.768;2023-03-01T03:30:43;16.13;;;7.20;;
19739;SDS011;10027;51.066;13.768;2023-03-01T03:33:11;16.07;;;7.80;;
19739;SDS011;10027;51.066;13.768;2023-03-01T03:35:48;17.27;;;7.83;;
19739;SDS011;10027;51.066;13.768;2023-03-01T03:38:17;12.83;;;6.97;;
19739;SDS011;10027;51.066;13.768;2023-03-01T03:40:51;14.20;;;7.40;;
19739;SDS011;10027;51.066;13.768;2023-03-01T03:43:20;14.97;;;7.00;;
19739;SDS011;10027;51.066;13.768;2023-03-01T03:45:48;15.27;;;7.20;;
19739;SDS011;10027;51.066;13.768;2023-03-01T03:48:16;18.33;;;7.90;;
19739;SDS011;10027;51.066;13.768;2023-03-01T03:50:47;16.27;;;7.57;;
19739;SDS011;10027;51.066;13.768;2023-03-01T03:53:14;16.00;;;7.40;;
19739;SDS011;10027;51.066;13.768;2023-03-01T03:55:41;16.10;;;7.20;;
19739;SDS011;10027;51.066;13.768;2023-03-01T03:58:10;13.27;;;6.77;;
19739;SDS011;10027;51.066;13.768;2023-03-01T04:00:38;15.63;;;7.17;;
19739;SDS011;10027;51.066;13.768;2023-03-01T04:03:07;17.00;;;7.43;;
19739;SDS011;10027;51.066;13.768;2023-03-01T04:05:34;15.13;;;7.43;;
19739;SDS011;10027;51.066;13.768;2023-03-01T04:08:02;16.50;;;6.63;;
19739;SDS011;10027;51.066;13.768;2023-03-01T04:10:30;12.67;;;6.70;;
19739;SDS011;10027;51.066;13.768;2023-03-01T04:12:57;19.30;;;7.33;;
19739;SDS011;10027;51.066;13.768;2023-03-01T04:15:25;17.00;;;7.53;;
19739;SDS011;10027;51.066;13.768;2023-03-01T04:17:53;14.10;;;7.27;;
19739;SDS011;10027;51.066;13.768;2023-03-01T04:20:21;15.67;;;7.57;;
19739;SDS011;10027;51.066;13.768;2023-03-01T04:22:52;13.40;;;6.90;;
19739;SDS011;10027;51.066;13.768;2023-03-01T04:25:19;17.80;;;8.17;;
19739;SDS011;10027;51.066;13.768;2023-03-01T04:27:46;16.50;;;7.80;;
19739;SDS011;10027;51.066;13.768;2023-03-01T04:30:14;22.50;;;8.00;;
19739;SDS011;10027;51.066;13.768;2023-03-01T04:32:41;15.13;;;7.53;;
19739;SDS011;10027;51.066;13.768;2023-03-01T04:35:08;25.97;;;7.93;;
19739;SDS011;10027;51.066;13.768;2023-03-01T04:37:35;13.47;;;7.60;;
19739;SDS011;10027;51.066;13.768;2023-03-01T04:40:03;16.73;;;7.93;;
19739;SDS011;10027;51.066;13.768;2023-03-01T04:42:42;16.90;;;7.83;;
19739;SDS011;10027;51.066;13.768;2023-03-01T04:45:10;15.07;;;7.30;;
19739;SDS011;10027;51.066;13.768;2023-03-01T04:47:40;18.33;;;8.63;;
19739;SDS011;10027;51.066;13.768;2023-03-01T04:50:09;23.20;;;8.13;;
19739;SDS011;10027;51.066;13.768;2023-03-01T04:52:36;16.27;;;7.80;;
19739;SDS011;10027;51.066;13.768;2023-03-01T04:55:03;18.50;;;8.40;;
19739;SDS011;10027;51.066;13.768;2023-03-01T04:57:31;17.03;;;7.37;;
19739;SDS011;10027;51.066;13.768;2023-03-01T04:59:58;17.03;;;8.07;;
19739;SDS011;10027;51.066;13.768;2023-03-01T05:02:25;13.17;;;7.17;;
19739;SDS011;10027;51.066;13.768;2023-03-01T05:04:52;19.27;;;7.83;;
19739;SDS011;10027;51.066;13.768;2023-03-01T05:07:23;19.40;;;8.23;;
19739;SDS011;10027;51.066;13.768;2023-03-01T05:09:52;15.50;;;8.13;;
19739;SDS011;10027;51.066;13.768;2023-03-01T05:12:20;22.07;;;8.60;;
19739;SDS011;10027;51.066;13.768;2023-03-01T05:14:47;15.93;;;7.90;;
19739;SDS011;10027;51.066;13.768;2023-03-01T05:17:14;17.33;;;8.10;;
19739;SDS011;10027;51.066;13.768;2023-03-01T05:19:41;18.27;;;7.87;;
19739;SDS011;10027;51.066;13.768;2023-03-01T05:22:08;17.97;;;8.00;;
19739;SDS011;10027;51.066;13.768;2023-03-01T05:24:35;13.73;;;6.30;;
19739;SDS011;10027;51.066;13.768;2023-03-01T05:27:04;17.40;;;8.20;;
19739;SDS011;10027;51.066;13.768;2023-03-01T05:29:32;19.63;;;7.73;;
19739;SDS011;10027;51.066;13.768;2023-03-01T05:32:01;27.60;;;8.77;;
19739;SDS011;10027;51.066;13.768;2023-03-01T05:34:32;15.63;;;7.83;;
19739;SDS011;10027;51.066;13.768;2023-03-01T05:37:00;19.07;;;8.00;;
19739;SDS011;10027;51.066;13.768;2023-03-01T05:39:28;20.47;;;8.23;;
19739;SDS011;10027;51.066;13.768;2023-03-01T05:41:56;16.97;;;8.17;;
19739;SDS011;10027;51.066;13.768;2023-03-01T05:44:23;15.90;;;7.73;;
19739;SDS011;10027;51.066;13.768;2023-03-01T05:46:51;21.03;;;7.97;;
19739;SDS011;10027;51.066;13.768;2023-03-01T05:49:18;20.07;;;8.37;;
19739;SDS011;10027;51.066;13.768;2023-03-01T05:51:49;16.43;;;8.37;;
19739;SDS011;10027;51.066;13.768;2023-03-01T05:54:17;18.83;;;7.97;;
19739;SDS011;10027;51.066;13.768;2023-03-01T05:56:44;22.10;;;8.20;;
19739;SDS011;10027;51.066;13.768;2023-03-01T05:59:11;14.53;;;7.40;;
19739;SDS011;10027;51.066;13.768;2023-03-01T06:01:39;16.83;;;7.73;;
19739;SDS011;10027;51.066;13.768;2023-03-01T06:04:07;19.13;;;8.10;;
19739;SDS011;10027;51.066;13.768;2023-03-01T06:06:34;16.77;;;7.87;;
19739;SDS011;10027;51.066;13.768;2023-03-01T06:09:04;21.23;;;8.53;;
19739;SDS011;10027;51.066;13.768;2023-03-01T06:11:33;21.07;;;7.80;;
19739;SDS011;10027;51.066;13.768;2023-03-01T06:14:01;29.77;;;8.40;;
19739;SDS011;10027;51.066;13.768;2023-03-01T06:16:28;26.40;;;8.20;;
19739;SDS011;10027;51.066;13.768;2023-03-01T06:18:55;21.83;;;8.57;;
19739;SDS011;10027;51.066;13.768;2023-03-01T06:21:22;18.40;;;8.33;;
19739;SDS011;10027;51.066;13.768;2023-03-01T06:23:50;19.77;;;7.87;;
19739;SDS011;10027;51.066;13.768;2023-03-01T06:26:17;14.37;;;8.07;;
19739;SDS011;10027;51.066;13.768;2023-03-01T06:28:45;18.97;;;8.13;;
19739;SDS011;10027;51.066;13.768;2023-03-01T06:31:12;15.77;;;7.93;;
19739;SDS011;10027;51.066;13.768;2023-03-01T06:33:39;20.43;;;7.60;;
19739;SDS011;10027;51.066;13.768;2023-03-01T06:36:07;17.57;;;7.27;;
19739;SDS011;10027;51.066;13.768;2023-03-01T06:38:34;17.30;;;8.07;;
19739;SDS011;10027;51.066;13.768;2023-03-01T06:41:01;18.97;;;8.90;;
19739;SDS011;10027;51.066;13.768;2023-03-01T06:43:28;21.10;;;8.03;;
19739;SDS011;10027;51.066;13.768;2023-03-01T06:45:55;18.17;;;7.93;;
19739;SDS011;10027;51.066;13.768;2023-03-01T06:48:22;16.93;;;7.97;;
19739;SDS011;10027;51.066;13.768;2023-03-01T06:50:49;18.17;;;7.70;;
19739;SDS011;10027;51.066;13.768;2023-03-01T06:53:17;20.57;;;8.10;;
19739;SDS011;10027;51.066;13.768;2023-03-01T06:55:44;17.70;;;8.37;;
19739;SDS011;10027;51.066;13.768;2023-03-01T06:58:11;18.00;;;9.00;;
19739;SDS011;10027;51.066;13.768;2023-03-01T07:00:38;18.03;;;8.27;;
19739;SDS011;10027;51.066;13.768;2023-03-01T07:03:07;18.57;;;8.13;;
19739;SDS011;10027;51.066;13.768;2023-03-01T07:05:35;18.67;;;7.73;;
19739;SDS011;10027;51.066;13.768;2023-03-01T07:08:02;16.27;;;8.17;;
19739;SDS011;10027;51.066;13.768;2023-03-01T07:10:29;25.63;;;8.47;;
19739;SDS011;10027;51.066;13.768;2023-03-01T07:12:57;26.10;;;8.30;;
19739;SDS011;10027;51.066;13.768;2023-03-01T07:15:24;20.43;;;7.73;;
19739;SDS011;10027;51.066;13.768;2023-03-01T07:17:52;17.23;;;8.10;;
19739;SDS011;10027;51.066;13.768;2023-03-01T07:20:20;20.30;;;8.43;;
19739;SDS011;10027;51.066;13.768;2023-03-01T07:22:51;19.00;;;8.73;;
19739;SDS011;10027;51.066;13.768;2023-03-01T07:25:18;19.37;;;8.77;;
19739;SDS011;10027;51.066;13.768;2023-03-01T07:27:49;18.77;;;8.80;;
19739;SDS011;10027;51.066;13.768;2023-03-01T07:30:17;16.00;;;8.47;;
19739;SDS011;10027;51.066;13.768;2023-03-01T07:32:44;23.53;;;9.20;;
19739;SDS011;10027;51.066;13.768;2023-03-01T07:35:11;19.00;;;8.90;;
19739;SDS011;10027;51.066;13.768;2023-03-01T07:37:39;18.90;;;9.27;;
19739;SDS011;10027;51.066;13.768;2023-03-01T07:40:06;19.60;;;8.77;;
19739;SDS011;10027;51.066;13.768;2023-03-01T07:42:37;16.20;;;8.40;;
19739;SDS011;10027;51.066;13.768;2023-03-01T07:45:04;20.80;;;8.53;;
19739;SDS011;10027;51.066;13.768;2023-03-01T07:47:32;18.00;;;9.37;;
19739;SDS011;10027;51.066;13.768;2023-03-01T07:49:59;23.67;;;8.27;;
19739;SDS011;10027;51.066;13.768;2023-03-01T07:52:27;21.13;;;8.87;;
19739;SDS011;10027;51.066;13.768;2023-03-01T07:54:54;16.37;;;8.63;;
19739;SDS011;10027;51.066;13.768;2023-03-01T07:57:21;20.30;;;8.60;;
19739;SDS011;10027;51.066;13.768;2023-03-01T07:59:48;19.00;;;8.53;;
19739;SDS011;10027;51.066;13.768;2023-03-01T08:02:15;26.60;;;9.30;;
19739;SDS011;10027;51.066;13.768;2023-03-01T08:04:42;18.23;;;8.83;;
19739;SDS011;10027;51.066;13.768;2023-03-01T08:07:10;20.23;;;9.10;;
19739;SDS011;10027;51.066;13.768;2023-03-01T08:09:37;20.60;;;8.50;;
19739;SDS011;10027;51.066;13.768;2023-03-01T08:12:04;19.60;;;8.63;;
19739;SDS011;10027;51.066;13.768;2023-03-01T08:14:31;16.63;;;8.43;;
19739;SDS011;10027;51.066;13.768;2023-03-01T08:16:59;30.13;;;9.57;;
19739;SDS011;10027;51.066;13.768;2023-03-01T08:19:26;23.37;;;9.00;;
19739;SDS011;10027;51.066;13.768;2023-03-01T08:21:54;21.20;;;8.90;;
19739;SDS011;10027;51.066;13.768;2023-03-01T08:24:24;23.03;;;8.87;;
19739;SDS011;10027;51.066;13.768;2023-03-01T08:26:51;19.60;;;8.80;;
19739;SDS011;10027;51.066;13.768;2023-03-01T08:29:18;22.30;;;8.90;;
19739;SDS011;10027;51.066;13.768;2023-03-01T08:31:45;18.10;;;9.00;;
19739;SDS011;10027;51.066;13.768;2023-03-01T08:34:13;19.17;;;9.00;;
19739;SDS011;10027;51.066;13.768;2023-03-01T08:36:42;18.27;;;9.30;;
19739;SDS011;10027;51.066;13.768;2023-03-01T08:39:10;17.40;;;8.77;;
19739;SDS011;10027;51.066;13.768;2023-03-01T08:41:37;24.63;;;9.70;;
19739;SDS011;10027;51.066;13.768;2023-03-01T08:44:04;22.27;;;9.97;;
19739;SDS011;10027;51.066;13.768;2023-03-01T08:46:33;21.37;;;9.87;;
19739;SDS011;10027;51.066;13.768;2023-03-01T08:49:02;23.40;;;9.93;;
19739;SDS011;10027;51.066;13.768;2023-03-01T08:51:30;21.50;;;9.60;;
19739;SDS011;10027;51.066;13.768;2023-03-01T08:54:03;17.70;;;9.90;;
19739;SDS011;10027;51.066;13.768;2023-03-01T08:56:30;22.87;;;10.07;;
19739;SDS011;10027;51.066;13.768;2023-03-01T08:58:58;25.63;;;10.63;;
19739;SDS011;10027;51.066;13.768;2023-03-01T09:01:25;23.77;;;10.67;;
19739;SDS011;10027;51.066;13.768;2023-03-01T09:03:52;27.67;;;10.67;;
19739;SDS011;10027;51.066;13.768;2023-03-01T09:06:19;24.33;;;11.37;;
19739;SDS011;10027;51.066;13.768;2023-03-01T09:08:48;21.57;;;10.93;;
19739;SDS011;10027;51.066;13.768;2023-03-01T09:11:17;24.90;;;11.00;;
19739;SDS011;10027;51.066;13.768;2023-03-01T09:13:44;24.33;;;11.90;;
19739;SDS011;10027;51.066;13.768;2023-03-01T09:16:13;26.03;;;11.97;;
19739;SDS011;10027;51.066;13.768;2023-03-01T09:18:40;23.03;;;12.37;;
19739;SDS011;10027;51.066;13.768;2023-03-01T09:21:08;26.83;;;12.50;;
19739;SDS011;10027;51.066;13.768;2023-03-01T09:23:36;23.57;;;13.17;;
19739;SDS011;10027;51.066;13.768;2023-03-01T09:26:05;30.60;;;12.40;;
19739;SDS011;10027;51.066;13.768;2023-03-01T09:28:35;24.90;;;12.80;;
19739;SDS011;10027;51.066;13.768;2023-03-01T09:31:02;29.80;;;13.97;;
19739;SDS011;10027;51.066;13.768;2023-03-01T09:33:30;24.30;;;12.40;;
19739;SDS011;10027;51.066;13.768;2023-03-01T09:35:58;22.70;;;12.50;;
19739;SDS011;10027;51.066;13.768;2023-03-01T09:38:25;23.67;;;12.73;;
19739;SDS011;10027;51.066;13.768;2023-03-01T09:40:53;23.23;;;13.17;;
19739;SDS011;10027;51.066;13.768;2023-03-01T09:43:26;25.07;;;12.47;;
19739;SDS011;10027;51.066;13.768;2023-03-01T09:45:58;24.13;;;12.83;;
19739;SDS011;10027;51.066;13.768;2023-03-01T09:48:27;25.50;;;13.20;;
19739;SDS011;10027;51.066;13.768;2023-03-01T09:50:55;21.83;;;12.67;;
19739;SDS011;10027;51.066;13.768;2023-03-01T09:53:25;24.90;;;13.40;;
19739;SDS011;10027;51.066;13.768;2023-03-01T09:56:01;31.37;;;13.77;;
19739;SDS011;10027;51.066;13.768;2023-03-01T10:06:51;26.50;;;12.80;;
19739;SDS011;10027;51.066;13.768;2023-03-01T10:09:19;24.03;;;12.53;;
19739;SDS011;10027;51.066;13.768;2023-03-01T10:11:52;25.00;;;13.20;;
19739;SDS011;10027;51.066;13.768;2023-03-01T10:15:03;30.50;;;12.37;;
19739;SDS011;10027;51.066;13.768;2023-03-01T10:19:41;30.37;;;13.47;;
19739;SDS011;10027;51.066;13.768;2023-03-01T10:24:41;22.53;;;12.23;;
19739;SDS011;10027;51.066;13.768;2023-03-01T10:27:12;24.43;;;12.43;;
19739;SDS011;10027;51.066;13.768;2023-03-01T10:32:43;21.97;;;11.93;;
19739;SDS011;10027;51.066;13.768;2023-03-01T10:35:24;21.63;;;11.93;;
19739;SDS011;10027;51.066;13.768;2023-03-01T10:40:24;21.03;;;11.17;;
19739;SDS011;10027;51.066;13.768;2023-03-01T10:42:52;24.67;;;11.93;;
19739;SDS011;10027;51.066;13.768;2023-03-01T10:56:05;23.07;;;11.07;;
19739;SDS011;10027;51.066;13.768;2023-03-01T10:58:34;25.83;;;10.57;;
19739;SDS011;10027;51.066;13.768;2023-03-01T11:03:30;15.97;;;9.30;;
19739;SDS011;10027;51.066;13.768;2023-03-01T11:08:31;17.53;;;9.77;;
19739;SDS011;10027;51.066;13.768;2023-03-01T11:14:07;14.93;;;8.67;;
19739;SDS011;10027;51.066;13.768;2023-03-01T11:19:37;18.47;;;9.47;;
19739;SDS011;10027;51.066;13.768;2023-03-01T11:22:12;17.07;;;8.80;;
19739;SDS011;10027;51.066;13.768;2023-03-01T11:24:40;14.23;;;8.60;;
19739;SDS011;10027;51.066;13.768;2023-03-01T11:27:15;16.83;;;9.27;;
19739;SDS011;10027;51.066;13.768;2023-03-01T11:29:44;14.33;;;8.17;;
19739;SDS011;10027;51.066;13.768;2023-03-01T11:32:14;15.27;;;8.47;;
19739;SDS011;10027;51.066;13.768;2023-03-01T11:34:53;14.57;;;8.07;;
19739;SDS011;10027;51.066;13.768;2023-03-01T11:39:53;14.53;;;8.17;;
19739;SDS011;10027;51.066;13.768;2023-03-01T11:42:25;17.23;;;8.40;;
19739;SDS011;10027;51.066;13.768;2023-03-01T11:44:55;13.80;;;8.10;;
19739;SDS011;10027;51.066;13.768;2023-03-01T11:55:21;13.90;;;7.83;;
19739;SDS011;10027;51.066;13.768;2023-03-01T12:00:48;12.17;;;8.03;;
19739;SDS011;10027;51.066;13.768;2023-03-01T12:11:12;14.43;;;8.47;;
19739;SDS011;10027;51.066;13.768;2023-03-01T12:19:08;16.23;;;9.37;;
19739;SDS011;10027;51.066;13.768;2023-03-01T12:34:34;17.20;;;9.97;;
19739;SDS011;10027;51.066;13.768;2023-03-01T12:39:59;18.53;;;10.00;;
19739;SDS011;10027;51.066;13.768;2023-03-01T12:50:21;19.50;;;10.23;;
19739;SDS011;10027;51.066;13.768;2023-03-01T12:52:56;27.93;;;10.37;;
19739;SDS011;10027;51.066;13.768;2023-03-01T12:55:31;20.07;;;10.70;;
19739;SDS011;10027;51.066;13.768;2023-03-01T13:00:36;19.53;;;10.47;;
19739;SDS011;10027;51.066;13.768;2023-03-01T13:08:20;19.07;;;9.93;;
19739;SDS011;10027;51.066;13.768;2023-03-01T13:10:50;19.93;;;10.30;;
19739;SDS011;10027;51.066;13.768;2023-03-01T13:13:25;18.77;;;9.93;;
19739;SDS011;10027;51.066;13.768;2023-03-01T13:15:53;17.23;;;9.97;;
19739;SDS011;10027;51.066;13.768;2023-03-01T13:20:49;16.50;;;9.70;;
19739;SDS011;10027;51.066;13.768;2023-03-01T13:23:27;16.57;;;9.90;;
19739;SDS011;10027;51.066;13.768;2023-03-01T13:31:02;16.47;;;9.57;;
19739;SDS011;10027;51.066;13.768;2023-03-01T13:35:57;19.43;;;9.80;;
19739;SDS011;10027;51.066;13.768;2023-03-01T13:41:16;18.30;;;9.50;;
19739;SDS011;10027;51.066;13.768;2023-03-01T13:43:44;19.17;;;9.47;;
19739;SDS011;10027;51.066;13.768;2023-03-01T13:46:17;19.77;;;9.37;;
19739;SDS011;10027;51.066;13.768;2023-03-01T13:48:48;19.50;;;10.13;;
19739;SDS011;10027;51.066;13.768;2023-03-01T13:51:20;18.93;;;10.20;;
19739;SDS011;10027;51.066;13.768;2023-03-01T13:53:48;19.53;;;9.10;;
19739;SDS011;10027;51.066;13.768;2023-03-01T13:56:16;22.03;;;10.67;;
19739;SDS011;10027;51.066;13.768;2023-03-01T13:58:52;20.97;;;10.27;;
19739;SDS011;10027;51.066;13.768;2023-03-01T14:01:24;23.60;;;10.13;;
19739;SDS011;10027;51.066;13.768;2023-03-01T14:03:51;17.87;;;9.53;;
19739;SDS011;10027;51.066;13.768;2023-03-01T14:06:26;15.93;;;9.10;;
19739;SDS011;10027;51.066;13.768;2023-03-01T14:09:04;18.63;;;9.27;;
19739;SDS011;10027;51.066;13.768;2023-03-01T14:11:35;20.97;;;9.70;;
19739;SDS011;10027;51.066;13.768;2023-03-01T14:19:15;20.90;;;10.17;;
19739;SDS011;10027;51.066;13.768;2023-03-01T14:24:38;18.93;;;9.67;;
19739;SDS011;10027;51.066;13.768;2023-03-01T14:27:10;22.57;;;10.53;;
19739;SDS011;10027;51.066;13.768;2023-03-01T14:29:39;19.60;;;10.40;;
19739;SDS011;10027;51.066;13.768;2023-03-01T14:34:46;17.20;;;9.40;;
19739;SDS011;10027;51.066;13.768;2023-03-01T14:39:54;16.83;;;9.20;;
19739;SDS011;10027;51.066;13.768;2023-03-01T14:42:22;20.83;;;10.07;;
19739;SDS011;10027;51.066;13.768;2023-03-01T14:44:50;20.13;;;9.73;;
19739;SDS011;10027;51.066;13.768;2023-03-01T14:47:31;21.83;;;9.50;;
19739;SDS011;10027;51.066;13.768;2023-03-01T14:50:08;16.53;;;9.17;;
19739;SDS011;10027;51.066;13.768;2023-03-01T14:52:40;20.70;;;8.93;;
19739;SDS011;10027;51.066;13.768;2023-03-01T14:55:19;16.27;;;9.27;;
19739;SDS011;10027;51.066;13.768;2023-03-01T14:57:48;18.90;;;8.97;;
19739;SDS011;10027;51.066;13.768;2023-03-01T15:02:46;18.57;;;9.80;;
19739;SDS011;10027;51.066;13.768;2023-03-01T15:05:14;15.23;;;9.17;;
19739;SDS011;10027;51.066;13.768;2023-03-01T15:07:43;16.60;;;9.33;;
19739;SDS011;10027;51.066;13.768;2023-03-01T15:10:22;17.47;;;9.07;;
19739;SDS011;10027;51.066;13.768;2023-03-01T15:12:50;17.33;;;9.33;;
19739;SDS011;10027;51.066;13.768;2023-03-01T15:15:28;19.43;;;9.27;;
19739;SDS011;10027;51.066;13.768;2023-03-01T15:17:58;16.97;;;8.90;;
19739;SDS011;10027;51.066;13.768;2023-03-01T15:20:26;17.63;;;9.40;;
19739;SDS011;10027;51.066;13.768;2023-03-01T15:22:55;15.10;;;9.00;;
19739;SDS011;10027;51.066;13.768;2023-03-01T15:25:27;19.57;;;9.33;;
19739;SDS011;10027;51.066;13.768;2023-03-01T15:27:55;17.43;;;9.37;;
19739;SDS011;10027;51.066;13.768;2023-03-01T15:30:25;16.30;;;9.30;;
19739;SDS011;10027;51.066;13.768;2023-03-01T15:35:46;14.97;;;8.80;;
19739;SDS011;10027;51.066;13.768;2023-03-01T15:38:36;16.00;;;9.20;;
19739;SDS011;10027;51.066;13.768;2023-03-01T15:43:51;15.53;;;8.03;;
19739;SDS011;10027;51.066;13.768;2023-03-01T15:46:25;16.60;;;8.77;;
19739;SDS011;10027;51.066;13.768;2023-03-01T15:48:54;15.07;;;8.13;;
19739;SDS011;10027;51.066;13.768;2023-03-01T15:51:27;15.80;;;8.60;;
19739;SDS011;10027;51.066;13.768;2023-03-01T15:53:55;18.13;;;8.47;;
19739;SDS011;10027;51.066;13.768;2023-03-01T15:56:24;13.83;;;8.10;;
19739;SDS011;10027;51.066;13.768;2023-03-01T15:58:51;14.60;;;8.40;;
19739;SDS011;10027;51.066;13.768;2023-03-01T16:01:18;14.13;;;7.90;;
19739;SDS011;10027;51.066;13.768;2023-03-01T16:03:45;13.30;;;7.93;;
19739;SDS011;10027;51.066;13.768;2023-03-01T16:06:12;15.33;;;7.63;;
19739;SDS011;10027;51.066;13.768;2023-03-01T16:08:40;15.40;;;8.20;;
19739;SDS011;10027;51.066;13.768;2023-03-01T16:11:14;14.20;;;8.27;;
19739;SDS011;10027;51.066;13.768;2023-03-01T16:13:42;15.67;;;8.23;;
19739;SDS011;10027;51.066;13.768;2023-03-01T16:16:10;15.90;;;8.60;;
19739;SDS011;10027;51.066;13.768;2023-03-01T16:18:40;16.23;;;8.63;;
19739;SDS011;10027;51.066;13.768;2023-03-01T16:21:11;19.53;;;8.63;;
19739;SDS011;10027;51.066;13.768;2023-03-01T16:23:38;15.10;;;8.30;;
19739;SDS011;10027;51.066;13.768;2023-03-01T16:26:05;15.80;;;8.77;;
19739;SDS011;10027;51.066;13.768;2023-03-01T16:28:32;16.67;;;8.40;;
19739;SDS011;10027;51.066;13.768;2023-03-01T16:30:59;15.90;;;8.87;;
19739;SDS011;10027;51.066;13.768;2023-03-01T16:33:28;18.37;;;8.50;;
19739;SDS011;10027;51.066;13.768;2023-03-01T16:35:59;18.17;;;8.80;;
19739;SDS011;10027;51.066;13.768;2023-03-01T16:38:28;17.00;;;8.00;;
19739;SDS011;10027;51.066;13.768;2023-03-01T16:40:55;20.20;;;8.57;;
19739;SDS011;10027;51.066;13.768;2023-03-01T16:43:22;16.10;;;8.60;;
19739;SDS011;10027;51.066;13.768;2023-03-01T16:45:49;18.60;;;8.13;;
19739;SDS011;10027;51.066;13.768;2023-03-01T16:48:17;15.10;;;8.23;;
19739;SDS011;10027;51.066;13.768;2023-03-01T16:50:44;15.83;;;8.40;;